Time;durP1;ratioP1;P1;durP2;ratioP2;P2;SDS_P1;SDS_P2;PMS_P1;PMS_P2;Temp;Humidity;BMP_temperature;BMP_pressure;BME280_temperature;BME280_humidity;BME280_pressure;Samples;Min_cycle;Max_cycle;Signal;HPM_P1;HPM_P2
2021/03/29 04:00:26;;;;;;;7.90;4.80;;;7.70;99.90;;;;;;6006504;23;20482;-71
2021/03/29 04:02:53;;;;;;;11.53;5.50;;;7.70;99.90;;;;;;4997455;28;20493;-71
2021/03/29 04:05:20;;;;;;;6.70;4.93;;;7.70;99.90;;;;;;4998095;28;20969;-72
2021/03/29 04:07:49;;;;;;;8.10;4.73;;;7.70;99.90;;;;;;4998313;28;20457;-72
2021/03/29 04:10:18;;;;;;;5.80;5.00;;;7.70;99.90;;;;;;4998083;28;20865;-72
2021/03/29 04:12:52;;;;;;;5.63;4.50;;;7.70;99.90;;;;;;4998732;28;20812;-72
2021/03/29 04:15:18;;;;;;;6.30;4.73;;;7.70;99.90;;;;;;5002773;28;20442;-72
2021/03/29 04:17:46;;;;;;;4.80;4.40;;;7.70;99.90;;;;;;5000375;28;20493;-72
2021/03/29 04:20:13;;;;;;;7.43;4.30;;;7.70;99.90;;;;;;4999588;28;20461;-72
2021/03/29 04:22:40;;;;;;;6.70;4.30;;;7.70;99.90;;;;;;4998701;28;20450;-72
2021/03/29 04:25:09;;;;;;;6.37;4.80;;;7.80;99.90;;;;;;4998443;28;20497;-72
2021/03/29 04:27:35;;;;;;;10.53;5.90;;;7.80;99.90;;;;;;4998230;28;20458;-72
2021/03/29 04:30:02;;;;;;;6.10;4.57;;;7.90;99.90;;;;;;4997714;28;20484;-72
2021/03/29 04:32:29;;;;;;;5.63;4.13;;;7.80;99.90;;;;;;4998375;28;20474;-72
2021/03/29 04:34:56;;;;;;;7.93;5.00;;;7.80;99.90;;;;;;5007876;28;20450;-72
2021/03/29 04:37:22;;;;;;;7.13;4.50;;;7.90;99.90;;;;;;5008255;28;20467;-73
2021/03/29 04:39:48;;;;;;;6.00;5.20;;;7.70;99.90;;;;;;5006224;28;20458;-72
2021/03/29 04:42:14;;;;;;;10.57;4.70;;;7.70;99.90;;;;;;5006403;28;20484;-72
2021/03/29 04:44:40;;;;;;;8.30;5.50;;;7.70;99.90;;;;;;5001544;28;20473;-72
2021/03/29 04:47:07;;;;;;;8.70;5.13;;;7.70;99.90;;;;;;4998172;28;20461;-72
2021/03/29 04:49:34;;;;;;;9.40;6.00;;;7.70;99.90;;;;;;4999554;28;20454;-72
2021/03/29 04:52:01;;;;;;;7.53;4.97;;;7.70;99.90;;;;;;4998182;28;20480;-72
2021/03/29 04:54:28;;;;;;;9.57;4.60;;;7.60;99.90;;;;;;4997873;28;20454;-72
2021/03/29 04:56:54;;;;;;;8.43;4.77;;;7.50;99.90;;;;;;4997567;28;20464;-73
2021/03/29 04:59:21;;;;;;;8.80;5.40;;;7.50;99.90;;;;;;4997943;28;20454;-72
2021/03/29 05:01:48;;;;;;;7.00;4.57;;;7.50;99.90;;;;;;4996534;28;20493;-71
2021/03/29 05:04:14;;;;;;;5.87;5.03;;;7.50;99.90;;;;;;4996305;28;20477;-71
2021/03/29 05:06:40;;;;;;;10.43;5.23;;;7.50;99.90;;;;;;4996266;28;20461;-71
2021/03/29 05:09:08;;;;;;;10.97;6.20;;;7.60;99.90;;;;;;4996000;28;20442;-71
2021/03/29 05:11:45;;;;;;;6.03;4.90;;;7.70;99.90;;;;;;4996220;28;20481;-72
2021/03/29 05:14:11;;;;;;;9.60;5.57;;;7.60;99.90;;;;;;4996345;28;20797;-72
2021/03/29 05:16:38;;;;;;;14.20;5.20;;;7.70;99.90;;;;;;4995835;28;20792;-71
2021/03/29 05:19:04;;;;;;;6.97;4.53;;;7.70;99.90;;;;;;4995960;28;20460;-71
2021/03/29 05:21:30;;;;;;;12.10;5.30;;;7.70;99.90;;;;;;4996129;28;20478;-72
2021/03/29 05:23:56;;;;;;;9.17;4.97;;;7.70;99.90;;;;;;4995850;28;20465;-72
2021/03/29 05:26:24;;;;;;;6.03;4.63;;;7.80;99.90;;;;;;4996165;28;20438;-71
2021/03/29 05:28:50;;;;;;;6.47;5.07;;;7.80;99.90;;;;;;4999464;28;20461;-72
2021/03/29 05:31:16;;;;;;;7.30;5.70;;;7.90;99.90;;;;;;5015260;28;20474;-72
2021/03/29 05:33:42;;;;;;;9.13;6.23;;;8.00;99.90;;;;;;5016980;28;20431;-72
2021/03/29 05:36:12;;;;;;;7.30;5.90;;;8.00;99.90;;;;;;5018925;28;20434;-73
2021/03/29 05:38:40;;;;;;;9.43;5.90;;;8.10;99.90;;;;;;5019149;28;20434;-71
2021/03/29 05:41:06;;;;;;;10.30;7.27;;;8.10;99.90;;;;;;5010504;28;20557;-72
2021/03/29 05:43:34;;;;;;;10.20;6.23;;;8.10;99.90;;;;;;4996528;28;20983;-72
2021/03/29 05:46:00;;;;;;;8.00;5.73;;;8.10;99.90;;;;;;4996618;28;20453;-71
2021/03/29 05:48:27;;;;;;;9.70;5.33;;;8.20;99.90;;;;;;4996739;28;20480;-71
2021/03/29 05:50:53;;;;;;;13.37;6.20;;;8.20;99.90;;;;;;4996119;28;20528;-73
2021/03/29 05:53:19;;;;;;;6.70;5.20;;;8.20;99.90;;;;;;4995462;28;20924;-72
2021/03/29 05:55:47;;;;;;;7.53;4.83;;;8.30;99.90;;;;;;4995133;28;20488;-72
2021/03/29 06:01:01;;;;;;;8.23;5.90;;;8.50;99.90;;;;;;4991841;28;20872;-71
2021/03/29 06:03:30;;;;;;;10.70;5.80;;;8.60;99.90;;;;;;4995588;28;20547;-72
2021/03/29 06:05:58;;;;;;;8.53;5.00;;;8.60;99.90;;;;;;4995610;28;20489;-72
2021/03/29 06:08:25;;;;;;;6.10;5.30;;;8.60;99.90;;;;;;4995258;28;20549;-72
2021/03/29 06:10:56;;;;;;;7.63;5.20;;;8.60;99.90;;;;;;4994834;28;20477;-72
2021/03/29 06:13:25;;;;;;;9.17;5.93;;;8.60;99.90;;;;;;4995394;28;20434;-72
2021/03/29 06:16:08;;;;;;;9.30;5.37;;;8.60;99.90;;;;;;4995154;28;20453;-72
2021/03/29 06:18:35;;;;;;;9.10;5.97;;;8.60;99.90;;;;;;4994879;28;20442;-72
2021/03/29 06:21:07;;;;;;;16.80;5.83;;;8.60;99.90;;;;;;4994561;28;20473;-72
2021/03/29 06:23:35;;;;;;;7.50;5.47;;;8.70;99.90;;;;;;4995292;28;20474;-72
2021/03/29 06:26:20;;;;;;;12.10;6.50;;;8.90;99.90;;;;;;4995245;28;20956;-72
2021/03/29 06:28:47;;;;;;;14.70;6.60;;;8.90;99.90;;;;;;4986182;28;20461;-72
2021/03/29 06:31:29;;;;;;;10.50;6.93;;;9.00;99.90;;;;;;4995206;28;20831;-72
2021/03/29 06:33:56;;;;;;;8.30;5.60;;;9.10;99.90;;;;;;4995526;28;20430;-73
2021/03/29 06:36:28;;;;;;;11.93;6.83;;;9.30;99.90;;;;;;4994777;28;20453;-72
2021/03/29 06:38:55;;;;;;;13.57;6.13;;;9.40;99.90;;;;;;4994829;28;20453;-72
2021/03/29 06:41:26;;;;;;;9.93;5.80;;;9.40;99.90;;;;;;4994805;28;20480;-72
2021/03/29 06:43:52;;;;;;;13.60;6.07;;;9.50;99.90;;;;;;4994558;28;20473;-72
2021/03/29 06:46:25;;;;;;;12.43;6.17;;;9.70;99.90;;;;;;4995031;28;20461;-72
2021/03/29 06:48:53;;;;;;;13.83;5.93;;;9.80;99.90;;;;;;4995289;28;20454;-72
2021/03/29 06:51:21;;;;;;;8.13;6.10;;;9.90;99.90;;;;;;4995042;28;20878;-72
2021/03/29 06:53:53;;;;;;;18.93;5.70;;;10.00;99.90;;;;;;4995271;28;20454;-72
2021/03/29 06:56:27;;;;;;;8.90;5.33;;;10.10;99.90;;;;;;4995083;28;20939;-72
2021/03/29 06:58:55;;;;;;;9.70;5.70;;;10.20;99.90;;;;;;4995615;28;20908;-72
2021/03/29 07:01:22;;;;;;;11.13;5.50;;;11.10;99.90;;;;;;4995073;28;21065;-72
2021/03/29 07:03:50;;;;;;;8.13;5.93;;;12.30;99.90;;;;;;4995560;28;20492;-72
2021/03/29 07:06:18;;;;;;;7.23;5.70;;;13.20;99.30;;;;;;4995596;28;20450;-72
2021/03/29 07:08:45;;;;;;;16.63;6.63;;;14.00;96.60;;;;;;4995285;28;20486;-72
2021/03/29 07:11:14;;;;;;;9.60;5.80;;;14.90;94.70;;;;;;4994856;28;20484;-73
2021/03/29 07:13:41;;;;;;;9.87;6.43;;;15.70;92.40;;;;;;4994581;28;20816;-72
2021/03/29 07:16:08;;;;;;;8.23;4.87;;;15.80;90.00;;;;;;4995375;28;20454;-73
2021/03/29 07:18:35;;;;;;;7.63;5.40;;;15.90;87.80;;;;;;4994852;28;20520;-71
2021/03/29 07:21:04;;;;;;;8.37;4.90;;;15.70;83.80;;;;;;4994899;28;20481;-72
2021/03/29 07:23:31;;;;;;;4.93;4.33;;;15.70;84.30;;;;;;4994779;28;20992;-72
2021/03/29 07:25:58;;;;;;;6.23;5.00;;;15.70;81.90;;;;;;4994656;28;20453;-73
2021/03/29 07:28:28;;;;;;;9.90;4.93;;;15.00;81.60;;;;;;4994863;28;20484;-72
2021/03/29 07:30:59;;;;;;;10.37;5.23;;;14.60;83.30;;;;;;4994032;28;20842;-72
2021/03/29 07:33:25;;;;;;;10.33;4.90;;;14.50;84.80;;;;;;4994372;28;20525;-73
2021/03/29 07:35:53;;;;;;;6.37;4.30;;;14.40;84.30;;;;;;4994714;28;20457;-73
2021/03/29 07:38:21;;;;;;;8.40;4.30;;;14.10;85.10;;;;;;4994820;28;20461;-73
2021/03/29 07:40:49;;;;;;;10.30;4.73;;;14.00;86.20;;;;;;4994612;28;20870;-73
2021/03/29 07:43:17;;;;;;;7.87;4.67;;;13.90;87.30;;;;;;4994519;28;20454;-73
2021/03/29 07:45:50;;;;;;;8.90;5.20;;;13.70;88.60;;;;;;4995483;28;20457;-73
2021/03/29 07:48:39;;;;;;;8.70;5.43;;;13.90;88.90;;;;;;4994875;28;20465;-72
2021/03/29 07:51:09;;;;;;;8.90;5.53;;;13.90;88.00;;;;;;4996226;28;20520;-72
2021/03/29 07:53:44;;;;;;;6.70;5.37;;;14.10;89.10;;;;;;4998389;28;20445;-72
2021/03/29 07:56:12;;;;;;;10.33;4.83;;;14.10;89.00;;;;;;4998753;28;20441;-72
2021/03/29 07:58:46;;;;;;;14.83;5.40;;;14.20;86.10;;;;;;4998633;28;20511;-71
2021/03/29 08:01:14;;;;;;;8.70;4.90;;;14.50;86.60;;;;;;4998137;28;20481;-72
2021/03/29 08:03:57;;;;;;;9.20;4.70;;;14.80;85.30;;;;;;4997890;28;20485;-68
2021/03/29 08:06:37;;;;;;;8.90;5.67;;;16.00;94.20;;;;;;4997893;28;20545;-67
2021/03/29 08:09:05;;;;;;;11.50;5.87;;;17.00;78.50;;;;;;4997813;28;20487;-67
2021/03/29 08:11:50;;;;;;;9.13;6.30;;;17.80;76.50;;;;;;4998003;28;20492;-71
2021/03/29 08:14:28;;;;;;;8.70;6.03;;;18.30;71.90;;;;;;4997442;28;20943;-71
2021/03/29 08:16:54;;;;;;;9.33;5.73;;;19.40;70.80;;;;;;4997091;28;20456;-68
2021/03/29 08:19:21;;;;;;;11.50;5.70;;;20.40;66.30;;;;;;4997126;28;20454;-72
2021/03/29 08:21:51;;;;;;;8.70;5.93;;;20.80;64.10;;;;;;4996920;28;20469;-70
2021/03/29 08:24:26;;;;;;;12.00;6.27;;;21.70;62.10;;;;;;4997132;28;20477;-71
2021/03/29 08:26:54;;;;;;;6.57;5.97;;;22.60;59.20;;;;;;4997106;28;20457;-72
2021/03/29 08:29:29;;;;;;;11.13;6.60;;;23.10;57.10;;;;;;4997113;28;20458;-72
2021/03/29 08:32:16;;;;;;;7.37;6.00;;;22.50;57.50;;;;;;4997521;28;20477;-71
2021/03/29 08:34:46;;;;;;;12.23;5.87;;;23.40;56.30;;;;;;4997679;28;20434;-72
2021/03/29 08:37:13;;;;;;;8.17;4.90;;;23.20;53.20;;;;;;4997303;28;20460;-71
2021/03/29 08:39:42;;;;;;;12.10;6.13;;;23.10;54.60;;;;;;4997299;28;20840;-71
2021/03/29 08:42:10;;;;;;;7.73;5.03;;;23.90;53.70;;;;;;4997959;28;20480;-72
2021/03/29 08:44:38;;;;;;;5.90;5.30;;;25.10;52.20;;;;;;4996910;28;20478;-72
2021/03/29 08:47:09;;;;;;;7.50;6.47;;;24.80;51.10;;;;;;4997095;28;20453;-71
2021/03/29 08:49:35;;;;;;;9.10;5.80;;;25.10;51.70;;;;;;4996828;28;20509;-71
2021/03/29 08:52:02;;;;;;;9.60;5.17;;;24.40;50.10;;;;;;4997677;28;20474;-72
2021/03/29 08:54:28;;;;;;;14.70;6.03;;;23.70;50.30;;;;;;4996608;28;20461;-72
2021/03/29 08:57:03;;;;;;;7.67;5.20;;;22.60;51.20;;;;;;4996648;28;20454;-71
2021/03/29 08:59:30;;;;;;;5.20;4.67;;;22.20;53.30;;;;;;4996674;28;20438;-71
2021/03/29 09:01:57;;;;;;;13.80;4.87;;;21.90;53.70;;;;;;4996093;28;20481;-70
2021/03/29 09:04:23;;;;;;;8.93;5.20;;;21.90;53.60;;;;;;4996735;28;20532;-71
2021/03/29 09:06:54;;;;;;;6.10;4.50;;;21.60;52.70;;;;;;4997229;28;20465;-71
2021/03/29 09:09:22;;;;;;;5.03;4.20;;;21.90;53.70;;;;;;4998566;28;20466;-70
2021/03/29 09:11:50;;;;;;;7.70;5.50;;;21.80;52.50;;;;;;4998584;28;20537;-71
2021/03/29 09:14:19;;;;;;;7.03;4.43;;;22.60;52.00;;;;;;4997068;28;20454;-71
2021/03/29 09:16:47;;;;;;;9.87;5.07;;;23.20;54.10;;;;;;4996608;28;20971;-71
2021/03/29 09:19:14;;;;;;;8.30;4.37;;;24.20;51.80;;;;;;4996361;28;20453;-72
2021/03/29 09:21:41;;;;;;;5.07;4.03;;;24.60;49.00;;;;;;4996081;28;21020;-72
2021/03/29 09:24:21;;;;;;;6.90;4.77;;;24.60;49.60;;;;;;4996720;28;20501;-72
2021/03/29 09:26:59;;;;;;;9.10;5.40;;;25.30;49.50;;;;;;4999192;28;20454;-71
2021/03/29 09:29:34;;;;;;;8.50;4.83;;;25.90;48.50;;;;;;5011785;28;20453;-71
2021/03/29 09:32:05;;;;;;;7.07;4.50;;;26.90;47.90;;;;;;5014306;28;20469;-69
2021/03/29 09:34:31;;;;;;;7.93;4.53;;;28.00;47.90;;;;;;5004680;28;20448;-69
2021/03/29 09:36:59;;;;;;;5.30;4.33;;;28.00;46.10;;;;;;4998094;28;20454;-67
2021/03/29 09:39:28;;;;;;;6.87;4.57;;;28.30;43.50;;;;;;4997530;28;20461;-69
2021/03/29 09:41:55;;;;;;;12.70;4.37;;;28.50;43.20;;;;;;4997120;28;20513;-68
2021/03/29 09:44:29;;;;;;;8.93;3.33;;;29.10;45.60;;;;;;4996455;28;20477;-68
2021/03/29 09:46:58;;;;;;;6.90;4.03;;;28.00;44.80;;;;;;4996185;28;20473;-69
2021/03/29 09:49:24;;;;;;;4.30;3.57;;;27.90;43.20;;;;;;4996245;28;20465;-67
2021/03/29 09:51:52;;;;;;;4.80;3.00;;;28.60;43.10;;;;;;4995959;28;20526;-71
2021/03/29 09:54:26;;;;;;;3.73;2.90;;;28.20;42.80;;;;;;4995811;28;20454;-67
2021/03/29 09:56:53;;;;;;;8.73;3.60;;;27.60;42.00;;;;;;4995552;28;20449;-67
2021/03/29 09:59:27;;;;;;;6.67;3.40;;;27.70;43.60;;;;;;4995296;28;20457;-67
2021/03/29 10:01:53;;;;;;;9.67;3.90;;;27.60;46.10;;;;;;4995604;28;20544;-67
2021/03/29 10:04:22;;;;;;;5.40;3.00;;;28.40;41.50;;;;;;4995705;28;20480;-70
2021/03/29 10:06:54;;;;;;;6.43;3.53;;;28.00;45.10;;;;;;4995582;28;20630;-70
2021/03/29 10:09:33;;;;;;;4.03;3.07;;;27.70;42.20;;;;;;4995644;28;20505;-70
2021/03/29 10:12:01;;;;;;;6.17;3.10;;;27.50;45.20;;;;;;4996530;28;20477;-70
2021/03/29 10:14:35;;;;;;;7.70;3.27;;;26.50;43.70;;;;;;4995915;28;20456;-70
2021/03/29 10:17:02;;;;;;;4.27;2.80;;;27.30;46.30;;;;;;4995597;28;21020;-69
2021/03/29 10:19:34;;;;;;;5.83;2.73;;;27.50;42.50;;;;;;4996878;28;20485;-70
2021/03/29 10:22:08;;;;;;;8.43;2.63;;;27.40;42.70;;;;;;4995193;28;20474;-70
2021/03/29 10:24:36;;;;;;;5.80;2.20;;;27.50;43.10;;;;;;4994063;28;20506;-70
2021/03/29 10:27:05;;;;;;;5.10;2.30;;;28.60;43.40;;;;;;4994327;28;20484;-71
2021/03/29 10:29:36;;;;;;;3.80;2.17;;;28.40;39.50;;;;;;4994667;28;20454;-71
2021/03/29 10:32:08;;;;;;;4.73;2.47;;;28.00;40.20;;;;;;4994152;28;21059;-71
2021/03/29 10:34:37;;;;;;;3.07;2.17;;;28.60;39.30;;;;;;4994714;28;20442;-70
2021/03/29 10:37:16;;;;;;;3.03;2.17;;;28.20;38.90;;;;;;4995598;28;20577;-71
2021/03/29 10:39:42;;;;;;;5.43;2.23;;;27.90;40.50;;;;;;4995609;28;20442;-70
2021/03/29 10:42:08;;;;;;;4.73;2.27;;;28.10;39.10;;;;;;5006108;28;20477;-70
2021/03/29 10:44:35;;;;;;;3.90;2.20;;;28.20;40.60;;;;;;5003547;28;20484;-69
2021/03/29 10:47:01;;;;;;;4.17;2.30;;;28.80;39.90;;;;;;5001817;28;20501;-71
2021/03/29 10:49:27;;;;;;;5.40;3.10;;;27.60;39.20;;;;;;5002033;28;20453;-70
2021/03/29 10:51:54;;;;;;;3.77;2.90;;;27.30;41.10;;;;;;4995213;28;20485;-70
2021/03/29 10:54:20;;;;;;;3.77;2.30;;;28.40;39.00;;;;;;4994743;28;20453;-70
2021/03/29 10:56:46;;;;;;;3.53;2.23;;;27.80;40.80;;;;;;4996576;28;20457;-70
2021/03/29 10:59:13;;;;;;;3.13;2.10;;;28.10;41.10;;;;;;4998125;28;20458;-69
2021/03/29 11:01:39;;;;;;;5.87;2.10;;;27.90;39.70;;;;;;4997537;28;20517;-68
2021/03/29 11:04:05;;;;;;;4.07;2.43;;;28.40;43.30;;;;;;4997792;28;20481;-69
2021/03/29 11:06:31;;;;;;;3.30;2.00;;;28.50;40.80;;;;;;4994839;28;20460;-69
2021/03/29 11:08:58;;;;;;;3.07;2.00;;;28.80;40.30;;;;;;4995169;28;20438;-69
2021/03/29 11:11:25;;;;;;;5.67;2.50;;;28.00;40.50;;;;;;4994684;28;20469;-70
2021/03/29 11:13:52;;;;;;;5.13;2.23;;;27.80;43.80;;;;;;4994786;28;20457;-70
2021/03/29 11:16:21;;;;;;;6.47;2.10;;;27.20;40.80;;;;;;4994597;28;20438;-71
2021/03/29 11:18:47;;;;;;;5.60;2.47;;;27.20;41.20;;;;;;4994425;28;20454;-69
2021/03/29 11:21:13;;;;;;;5.60;2.27;;;26.80;39.80;;;;;;4994334;28;20833;-70
2021/03/29 11:23:39;;;;;;;5.20;2.70;;;26.30;40.70;;;;;;4996009;28;20457;-71
2021/03/29 11:26:06;;;;;;;4.13;2.07;;;25.90;43.60;;;;;;4997119;28;20453;-70
2021/03/29 11:28:33;;;;;;;3.13;2.30;;;25.20;40.80;;;;;;4998540;28;20445;-71
2021/03/29 11:30:59;;;;;;;2.37;2.17;;;25.40;42.60;;;;;;4997826;28;20477;-71
2021/03/29 11:33:25;;;;;;;3.50;1.90;;;25.20;42.30;;;;;;4997578;28;20458;-71
2021/03/29 11:35:52;;;;;;;6.60;2.03;;;25.00;42.80;;;;;;4997807;28;20501;-70
2021/03/29 11:38:18;;;;;;;3.57;2.33;;;24.10;40.90;;;;;;4997878;28;20456;-70
2021/03/29 11:40:44;;;;;;;4.20;2.47;;;23.60;42.60;;;;;;4997541;28;20474;-70
2021/03/29 11:43:11;;;;;;;3.40;2.37;;;23.70;43.80;;;;;;4997805;28;20464;-70
2021/03/29 11:45:37;;;;;;;7.23;2.07;;;23.50;42.40;;;;;;4997817;28;20484;-70
2021/03/29 11:48:04;;;;;;;4.03;2.47;;;23.60;43.90;;;;;;4997728;28;20453;-70
2021/03/29 11:50:31;;;;;;;5.70;2.87;;;23.80;44.20;;;;;;4997284;28;20449;-70
2021/03/29 11:52:57;;;;;;;2.63;2.20;;;24.10;46.50;;;;;;4997473;28;20454;-69
2021/03/29 11:55:23;;;;;;;4.80;2.73;;;23.50;42.30;;;;;;4997457;28;20457;-70
2021/03/29 11:57:50;;;;;;;5.63;2.47;;;23.70;48.40;;;;;;4997866;28;20462;-70
2021/03/29 12:00:23;;;;;;;5.83;2.50;;;24.00;45.60;;;;;;4997219;28;20472;-70
2021/03/29 12:02:57;;;;;;;4.50;2.20;;;23.40;43.00;;;;;;4997257;28;20801;-69
2021/03/29 12:05:26;;;;;;;3.33;2.40;;;23.60;45.60;;;;;;4997614;28;20462;-70
2021/03/29 12:08:08;;;;;;;3.30;2.30;;;23.80;48.20;;;;;;4997501;28;20454;-70
2021/03/29 12:13:19;;;;;;;8.83;2.37;;;23.90;45.10;;;;;;4999643;28;20470;-68
2021/03/29 12:15:49;;;;;;;3.97;2.37;;;24.30;45.70;;;;;;5000586;28;20457;-68
2021/03/29 12:18:21;;;;;;;3.00;2.13;;;24.40;47.20;;;;;;5000744;28;20525;-68
2021/03/29 12:20:47;;;;;;;3.30;1.60;;;24.50;42.90;;;;;;5000835;28;20484;-68
2021/03/29 12:23:15;;;;;;;3.40;2.10;;;24.10;43.80;;;;;;5000349;28;20453;-68
2021/03/29 12:25:47;;;;;;;2.97;2.10;;;24.10;43.40;;;;;;5000573;28;20488;-67
2021/03/29 12:28:14;;;;;;;2.53;2.00;;;23.70;42.90;;;;;;5000305;28;20438;-68
2021/03/29 12:30:41;;;;;;;5.73;2.20;;;23.90;43.30;;;;;;4999802;28;20481;-67
2021/03/29 12:33:09;;;;;;;4.43;2.50;;;24.10;45.40;;;;;;5003593;28;20529;-68
2021/03/29 12:35:36;;;;;;;4.50;2.00;;;24.10;43.60;;;;;;5004476;28;20454;-68
2021/03/29 12:38:04;;;;;;;4.27;2.53;;;24.10;43.10;;;;;;5003891;28;20450;-69
2021/03/29 12:40:31;;;;;;;2.23;2.03;;;24.20;44.80;;;;;;5005642;28;20955;-67
2021/03/29 12:43:05;;;;;;;4.57;2.33;;;24.10;44.80;;;;;;5004952;28;20465;-69
2021/03/29 12:45:33;;;;;;;3.77;2.07;;;24.20;45.30;;;;;;5006328;28;20465;-69
2021/03/29 12:48:01;;;;;;;3.23;2.00;;;24.40;44.60;;;;;;5006242;28;20458;-69
2021/03/29 12:50:30;;;;;;;5.07;2.00;;;24.50;43.80;;;;;;5002339;28;20465;-69
2021/03/29 12:52:56;;;;;;;7.80;1.83;;;24.60;43.80;;;;;;4999602;28;20442;-69
2021/03/29 12:55:25;;;;;;;6.97;2.43;;;24.80;42.30;;;;;;4997223;28;20504;-69
2021/03/29 12:57:54;;;;;;;5.43;2.27;;;25.00;43.00;;;;;;4996811;28;20453;-70
2021/03/29 13:00:22;;;;;;;3.60;1.90;;;25.30;44.30;;;;;;4996766;28;20456;-69
2021/03/29 13:02:49;;;;;;;3.47;2.10;;;25.40;43.20;;;;;;4996647;28;20442;-69
2021/03/29 13:05:20;;;;;;;5.97;2.10;;;25.20;41.90;;;;;;4996546;28;20601;-70
2021/03/29 13:07:53;;;;;;;7.53;2.63;;;25.10;41.90;;;;;;4998052;28;20514;-70
2021/03/29 13:13:01;;;;;;;4.30;2.37;;;24.60;40.90;;;;;;4999175;28;20928;-67
2021/03/29 13:15:28;;;;;;;3.17;2.23;;;24.90;46.30;;;;;;5000628;28;20446;-68
2021/03/29 13:17:54;;;;;;;3.80;2.33;;;25.20;44.40;;;;;;5001165;28;20454;-67
2021/03/29 13:20:22;;;;;;;3.70;1.90;;;25.20;41.40;;;;;;4999902;28;20456;-67
2021/03/29 13:22:50;;;;;;;4.30;2.40;;;24.90;43.80;;;;;;5000964;28;20476;-67
2021/03/29 13:25:20;;;;;;;4.53;2.67;;;24.80;42.70;;;;;;5000218;28;20482;-68
2021/03/29 13:27:46;;;;;;;4.00;2.60;;;24.90;41.90;;;;;;5001971;28;20441;-67
2021/03/29 13:30:15;;;;;;;5.00;2.60;;;24.90;42.30;;;;;;5001774;28;20453;-68
2021/03/29 13:32:42;;;;;;;3.33;2.43;;;24.70;40.80;;;;;;4999465;28;20481;-67
2021/03/29 13:35:09;;;;;;;4.07;2.40;;;24.70;41.20;;;;;;4995896;28;20814;-67
2021/03/29 13:37:36;;;;;;;10.40;2.07;;;24.50;40.00;;;;;;4995958;28;20458;-67
2021/03/29 13:40:04;;;;;;;4.30;2.03;;;24.50;41.10;;;;;;4995922;28;20458;-67
2021/03/29 13:42:30;;;;;;;4.23;2.63;;;24.70;43.90;;;;;;4996081;28;20478;-67
2021/03/29 13:44:58;;;;;;;3.67;2.07;;;24.90;40.50;;;;;;4995777;28;20474;-68
2021/03/29 13:47:27;;;;;;;4.60;2.20;;;24.80;43.00;;;;;;4995803;28;20449;-68
2021/03/29 13:49:53;;;;;;;2.60;2.10;;;25.20;44.00;;;;;;4996683;28;20504;-68
2021/03/29 13:52:20;;;;;;;6.07;2.20;;;25.30;42.00;;;;;;5004326;28;20470;-68
2021/03/29 13:54:47;;;;;;;2.90;1.93;;;25.40;43.30;;;;;;5002526;28;20469;-68
2021/03/29 13:57:14;;;;;;;3.70;2.20;;;25.60;40.90;;;;;;5001842;28;20512;-67
2021/03/29 13:59:40;;;;;;;2.60;2.27;;;25.80;39.90;;;;;;5003109;28;20458;-67
2021/03/29 14:02:08;;;;;;;6.00;2.50;;;25.80;38.90;;;;;;4998270;28;20501;-68
2021/03/29 14:04:35;;;;;;;2.23;2.00;;;25.30;40.70;;;;;;4997015;28;20988;-68
2021/03/29 14:07:02;;;;;;;2.77;2.20;;;25.20;39.20;;;;;;4996066;28;20945;-67
2021/03/29 14:09:28;;;;;;;2.90;2.23;;;24.90;41.00;;;;;;4995082;28;20457;-68
2021/03/29 14:11:55;;;;;;;4.73;2.33;;;25.00;40.70;;;;;;4994765;28;20991;-68
2021/03/29 14:14:24;;;;;;;4.23;2.20;;;25.00;43.10;;;;;;4994466;28;20454;-68
2021/03/29 14:16:51;;;;;;;5.10;2.30;;;25.30;42.70;;;;;;4995204;28;20496;-68
2021/03/29 14:19:19;;;;;;;2.37;2.17;;;25.30;41.40;;;;;;4994750;28;20516;-68
2021/03/29 14:21:46;;;;;;;5.23;2.43;;;25.30;41.00;;;;;;4994976;28;20876;-67
2021/03/29 14:24:13;;;;;;;3.83;2.03;;;25.50;41.80;;;;;;4994507;28;21046;-68
2021/03/29 14:26:40;;;;;;;3.90;2.00;;;25.30;41.10;;;;;;4994796;28;20458;-68
2021/03/29 14:29:07;;;;;;;3.20;2.20;;;25.40;43.00;;;;;;4994442;28;20512;-68
2021/03/29 14:31:35;;;;;;;6.30;2.30;;;25.50;41.50;;;;;;4995041;28;20485;-68
2021/03/29 14:34:02;;;;;;;7.10;2.30;;;25.20;40.40;;;;;;4994832;28;20460;-67
2021/03/29 14:36:34;;;;;;;3.50;2.07;;;25.30;38.40;;;;;;4994585;28;21006;-67
2021/03/29 14:39:08;;;;;;;6.53;2.20;;;25.20;38.30;;;;;;4994264;28;20816;-67
2021/03/29 14:41:42;;;;;;;4.67;2.60;;;25.30;38.20;;;;;;4994561;28;20636;-69
2021/03/29 14:44:27;;;;;;;2.53;2.10;;;25.50;39.30;;;;;;4994599;28;20445;-71
2021/03/29 14:46:54;;;;;;;3.43;2.10;;;25.30;38.50;;;;;;4994629;28;20446;-70
2021/03/29 14:49:21;;;;;;;3.87;2.70;;;25.10;37.60;;;;;;4994063;28;20948;-69
2021/03/29 14:51:48;;;;;;;3.77;2.23;;;24.70;42.60;;;;;;4994257;28;20833;-66
2021/03/29 14:54:14;;;;;;;3.20;2.10;;;24.60;42.50;;;;;;4994188;28;20454;-66
2021/03/29 14:56:40;;;;;;;3.10;2.00;;;24.50;41.70;;;;;;4994166;28;20496;-70
2021/03/29 14:59:08;;;;;;;2.30;2.13;;;24.30;42.20;;;;;;4995202;28;20463;-69
2021/03/29 15:01:34;;;;;;;2.70;2.10;;;24.40;42.70;;;;;;5000532;28;20891;-70
2021/03/29 15:04:02;;;;;;;5.53;1.83;;;24.70;40.40;;;;;;5000805;28;20441;-69
2021/03/29 15:06:36;;;;;;;8.93;2.50;;;24.80;40.50;;;;;;5001042;28;20455;-69
2021/03/29 15:09:03;;;;;;;3.20;2.20;;;24.80;38.90;;;;;;5000380;28;20920;-70
2021/03/29 15:11:29;;;;;;;4.07;2.07;;;24.50;41.40;;;;;;5000632;28;20477;-70
2021/03/29 15:13:56;;;;;;;2.20;2.00;;;24.50;39.30;;;;;;5000143;28;21040;-71
2021/03/29 15:16:23;;;;;;;4.00;2.23;;;24.60;41.00;;;;;;5001328;28;20524;-69
2021/03/29 15:18:50;;;;;;;1.83;1.70;;;24.40;41.10;;;;;;5000698;28;20457;-70
2021/03/29 15:21:17;;;;;;;6.50;2.37;;;24.20;39.10;;;;;;5000710;28;20473;-70
2021/03/29 15:23:43;;;;;;;5.20;2.30;;;24.20;39.30;;;;;;5000514;28;20488;-69
2021/03/29 15:26:10;;;;;;;2.73;2.40;;;24.10;39.70;;;;;;5003179;28;20539;-70
2021/03/29 15:28:36;;;;;;;9.10;2.13;;;24.10;41.40;;;;;;5001052;28;20468;-71
2021/03/29 15:31:02;;;;;;;3.20;2.27;;;24.00;41.50;;;;;;5000891;28;20544;-70
2021/03/29 15:33:29;;;;;;;2.60;2.40;;;24.10;43.00;;;;;;5000926;28;20465;-70
2021/03/29 15:35:55;;;;;;;4.53;2.10;;;24.10;39.40;;;;;;5001007;28;20457;-70
2021/03/29 15:38:22;;;;;;;3.73;2.20;;;23.70;40.20;;;;;;5005093;28;20461;-71
2021/03/29 15:40:48;;;;;;;4.80;1.87;;;24.00;41.40;;;;;;5007004;28;20568;-70
2021/03/29 15:43:15;;;;;;;9.43;2.97;;;24.10;43.00;;;;;;5008342;28;20461;-69
2021/03/29 15:45:41;;;;;;;4.07;2.30;;;24.30;43.00;;;;;;5002528;28;20835;-70
2021/03/29 15:48:08;;;;;;;2.47;2.27;;;24.20;40.90;;;;;;5001866;28;21015;-70
2021/03/29 15:50:35;;;;;;;3.73;2.73;;;23.70;40.60;;;;;;5001213;28;20453;-69
2021/03/29 15:53:01;;;;;;;7.23;2.03;;;23.60;41.00;;;;;;5001462;28;20450;-69
2021/03/29 15:55:28;;;;;;;7.37;2.20;;;23.70;39.90;;;;;;5000654;28;20508;-70
2021/03/29 15:57:57;;;;;;;2.60;2.07;;;23.70;39.90;;;;;;5001304;28;20450;-69
2021/03/29 16:00:24;;;;;;;1.97;1.60;;;23.50;41.40;;;;;;5000825;28;20449;-70
2021/03/29 16:02:52;;;;;;;3.03;1.90;;;23.40;40.50;;;;;;5000797;28;20445;-69
2021/03/29 16:05:19;;;;;;;2.23;2.03;;;23.30;40.30;;;;;;5001790;28;20488;-70
2021/03/29 16:07:45;;;;;;;2.50;2.00;;;23.30;39.80;;;;;;5001037;28;20947;-70
2021/03/29 16:10:13;;;;;;;3.20;2.30;;;23.20;39.70;;;;;;5001813;28;20533;-69
2021/03/29 16:12:41;;;;;;;3.50;1.80;;;23.00;40.90;;;;;;4996767;28;20553;-69
2021/03/29 16:15:09;;;;;;;2.83;1.73;;;23.00;40.70;;;;;;4997973;28;20457;-70
2021/03/29 16:17:36;;;;;;;5.33;2.00;;;22.80;40.20;;;;;;4998088;28;20453;-70
2021/03/29 16:20:03;;;;;;;2.90;1.63;;;22.80;39.80;;;;;;4998229;28;20541;-69
2021/03/29 16:22:29;;;;;;;3.10;1.80;;;22.80;40.60;;;;;;4996760;28;20469;-69
2021/03/29 16:24:56;;;;;;;3.97;2.60;;;22.70;39.80;;;;;;4997087;28;20477;-70
2021/03/29 16:27:22;;;;;;;2.30;2.10;;;22.60;39.60;;;;;;4997049;28;20453;-70
2021/03/29 16:29:49;;;;;;;3.40;2.20;;;22.50;38.60;;;;;;4996922;28;20816;-70
2021/03/29 16:32:19;;;;;;;4.43;1.97;;;22.50;41.10;;;;;;4996812;28;20477;-69
2021/03/29 16:34:46;;;;;;;2.70;1.97;;;22.40;39.60;;;;;;4997016;28;20503;-70
2021/03/29 16:37:13;;;;;;;2.50;1.97;;;22.30;38.10;;;;;;4996991;28;20454;-68
2021/03/29 16:39:39;;;;;;;3.10;1.80;;;22.10;36.90;;;;;;4996996;28;20454;-70
2021/03/29 16:42:06;;;;;;;3.37;1.77;;;21.90;37.00;;;;;;4996727;28;20477;-70
2021/03/29 16:44:32;;;;;;;5.40;2.23;;;21.90;38.20;;;;;;4997136;28;20485;-70
2021/03/29 16:47:00;;;;;;;2.20;2.00;;;21.80;39.10;;;;;;4996754;28;20799;-69
2021/03/29 16:49:26;;;;;;;2.20;1.80;;;21.70;38.80;;;;;;4998065;28;20449;-70
2021/03/29 16:51:53;;;;;;;2.27;1.90;;;21.70;37.90;;;;;;4997522;28;20478;-70
2021/03/29 16:54:19;;;;;;;2.10;1.87;;;21.60;38.80;;;;;;4997436;28;20438;-69
2021/03/29 16:56:45;;;;;;;3.50;2.47;;;21.50;39.10;;;;;;4997586;28;20449;-70
2021/03/29 16:59:12;;;;;;;3.30;2.20;;;21.40;37.90;;;;;;4997497;28;20548;-70
2021/03/29 17:01:38;;;;;;;4.07;2.87;;;21.40;38.80;;;;;;4996773;28;20543;-69